sensor_id;sensor_type;location;lat;lon;timestamp;P1;durP1;ratioP1;P2;durP2;ratioP2
20609;SDS011;10463;52.378;9.688;2023-04-24T00:00:36;1.60;;;0.97;;
20609;SDS011;10463;52.378;9.688;2023-04-24T00:03:22;1.60;;;0.90;;
20609;SDS011;10463;52.378;9.688;2023-04-24T00:06:07;1.47;;;0.97;;
20609;SDS011;10463;52.378;9.688;2023-04-24T00:08:53;1.73;;;1.03;;
20609;SDS011;10463;52.378;9.688;2023-04-24T00:11:37;1.67;;;1.10;;
20609;SDS011;10463;52.378;9.688;2023-04-24T00:14:22;1.30;;;0.80;;
20609;SDS011;10463;52.378;9.688;2023-04-24T00:17:06;1.60;;;1.10;;
20609;SDS011;10463;52.378;9.688;2023-04-24T00:19:51;1.77;;;1.07;;
20609;SDS011;10463;52.378;9.688;2023-04-24T00:22:42;1.50;;;0.90;;
20609;SDS011;10463;52.378;9.688;2023-04-24T00:25:28;1.40;;;0.90;;
20609;SDS011;10463;52.378;9.688;2023-04-24T00:28:13;1.47;;;0.90;;
20609;SDS011;10463;52.378;9.688;2023-04-24T00:30:58;1.50;;;0.90;;
20609;SDS011;10463;52.378;9.688;2023-04-24T00:33:43;1.40;;;0.80;;
20609;SDS011;10463;52.378;9.688;2023-04-24T00:36:28;1.80;;;1.10;;
20609;SDS011;10463;52.378;9.688;2023-04-24T00:39:13;1.30;;;0.60;;
20609;SDS011;10463;52.378;9.688;2023-04-24T00:41:59;1.50;;;0.90;;
20609;SDS011;10463;52.378;9.688;2023-04-24T00:44:45;1.50;;;0.90;;
20609;SDS011;10463;52.378;9.688;2023-04-24T00:47:31;1.40;;;0.90;;
20609;SDS011;10463;52.378;9.688;2023-04-24T00:50:17;1.40;;;0.87;;
20609;SDS011;10463;52.378;9.688;2023-04-24T00:53:03;1.70;;;1.00;;
20609;SDS011;10463;52.378;9.688;2023-04-24T00:55:48;1.60;;;1.00;;
20609;SDS011;10463;52.378;9.688;2023-04-24T00:58:35;1.60;;;1.00;;
20609;SDS011;10463;52.378;9.688;2023-04-24T01:01:21;1.50;;;0.97;;
20609;SDS011;10463;52.378;9.688;2023-04-24T01:04:05;1.87;;;0.93;;
20609;SDS011;10463;52.378;9.688;2023-04-24T01:06:51;1.50;;;0.93;;
20609;SDS011;10463;52.378;9.688;2023-04-24T01:09:37;1.93;;;1.20;;
20609;SDS011;10463;52.378;9.688;2023-04-24T01:12:24;1.67;;;1.00;;
20609;SDS011;10463;52.378;9.688;2023-04-24T01:15:10;2.10;;;1.40;;
20609;SDS011;10463;52.378;9.688;2023-04-24T01:17:55;1.90;;;1.03;;
20609;SDS011;10463;52.378;9.688;2023-04-24T01:20:42;1.40;;;0.90;;
20609;SDS011;10463;52.378;9.688;2023-04-24T01:23:29;1.50;;;0.83;;
20609;SDS011;10463;52.378;9.688;2023-04-24T01:26:16;1.90;;;1.10;;
20609;SDS011;10463;52.378;9.688;2023-04-24T01:29:04;1.50;;;0.90;;
20609;SDS011;10463;52.378;9.688;2023-04-24T01:31:49;1.50;;;1.00;;
20609;SDS011;10463;52.378;9.688;2023-04-24T01:34:34;1.67;;;1.13;;
20609;SDS011;10463;52.378;9.688;2023-04-24T01:37:19;1.53;;;1.00;;
20609;SDS011;10463;52.378;9.688;2023-04-24T01:40:06;1.70;;;0.90;;
20609;SDS011;10463;52.378;9.688;2023-04-24T01:42:52;1.50;;;1.03;;
20609;SDS011;10463;52.378;9.688;2023-04-24T01:45:37;1.67;;;1.07;;
20609;SDS011;10463;52.378;9.688;2023-04-24T01:48:22;1.50;;;0.90;;
20609;SDS011;10463;52.378;9.688;2023-04-24T01:51:07;1.50;;;0.90;;
20609;SDS011;10463;52.378;9.688;2023-04-24T01:53:52;1.57;;;1.10;;
20609;SDS011;10463;52.378;9.688;2023-04-24T01:56:39;1.50;;;0.90;;
20609;SDS011;10463;52.378;9.688;2023-04-24T01:59:26;1.50;;;0.90;;
20609;SDS011;10463;52.378;9.688;2023-04-24T02:02:12;1.50;;;0.80;;
20609;SDS011;10463;52.378;9.688;2023-04-24T02:04:57;1.50;;;1.00;;
20609;SDS011;10463;52.378;9.688;2023-04-24T02:07:42;1.53;;;0.97;;
20609;SDS011;10463;52.378;9.688;2023-04-24T02:10:27;1.93;;;1.03;;
20609;SDS011;10463;52.378;9.688;2023-04-24T02:13:13;1.30;;;0.80;;
20609;SDS011;10463;52.378;9.688;2023-04-24T02:15:58;1.70;;;1.10;;
20609;SDS011;10463;52.378;9.688;2023-04-24T02:18:42;1.70;;;0.87;;
20609;SDS011;10463;52.378;9.688;2023-04-24T02:21:28;1.60;;;1.10;;
20609;SDS011;10463;52.378;9.688;2023-04-24T02:24:12;1.43;;;0.90;;
20609;SDS011;10463;52.378;9.688;2023-04-24T02:26:57;1.40;;;0.80;;
20609;SDS011;10463;52.378;9.688;2023-04-24T02:29:44;1.87;;;1.10;;
20609;SDS011;10463;52.378;9.688;2023-04-24T02:32:28;1.40;;;0.80;;
20609;SDS011;10463;52.378;9.688;2023-04-24T02:35:15;1.40;;;0.80;;
20609;SDS011;10463;52.378;9.688;2023-04-24T02:38:00;1.30;;;0.80;;
20609;SDS011;10463;52.378;9.688;2023-04-24T02:40:44;1.40;;;0.80;;
20609;SDS011;10463;52.378;9.688;2023-04-24T02:43:29;1.50;;;0.90;;
20609;SDS011;10463;52.378;9.688;2023-04-24T02:46:15;1.53;;;0.90;;
20609;SDS011;10463;52.378;9.688;2023-04-24T02:49:00;1.43;;;0.80;;
20609;SDS011;10463;52.378;9.688;2023-04-24T02:51:46;1.50;;;0.90;;
20609;SDS011;10463;52.378;9.688;2023-04-24T02:54:30;1.50;;;0.80;;
20609;SDS011;10463;52.378;9.688;2023-04-24T02:57:15;1.40;;;0.80;;
20609;SDS011;10463;52.378;9.688;2023-04-24T03:00:01;1.60;;;0.87;;
20609;SDS011;10463;52.378;9.688;2023-04-24T03:02:48;1.40;;;0.83;;
20609;SDS011;10463;52.378;9.688;2023-04-24T03:05:34;1.40;;;0.77;;
20609;SDS011;10463;52.378;9.688;2023-04-24T03:08:19;1.40;;;0.80;;
20609;SDS011;10463;52.378;9.688;2023-04-24T03:11:03;1.30;;;0.70;;
20609;SDS011;10463;52.378;9.688;2023-04-24T03:13:49;1.43;;;0.80;;
20609;SDS011;10463;52.378;9.688;2023-04-24T03:16:33;1.30;;;0.70;;
20609;SDS011;10463;52.378;9.688;2023-04-24T03:19:19;1.50;;;0.90;;
20609;SDS011;10463;52.378;9.688;2023-04-24T03:22:26;1.40;;;0.70;;
20609;SDS011;10463;52.378;9.688;2023-04-24T03:25:10;1.30;;;0.70;;
20609;SDS011;10463;52.378;9.688;2023-04-24T03:27:55;1.53;;;0.80;;
20609;SDS011;10463;52.378;9.688;2023-04-24T03:30:51;1.40;;;0.80;;
20609;SDS011;10463;52.378;9.688;2023-04-24T03:33:37;1.73;;;0.80;;
20609;SDS011;10463;52.378;9.688;2023-04-24T03:36:23;1.70;;;0.70;;
20609;SDS011;10463;52.378;9.688;2023-04-24T03:39:07;1.47;;;0.73;;
20609;SDS011;10463;52.378;9.688;2023-04-24T03:41:54;1.33;;;0.70;;
20609;SDS011;10463;52.378;9.688;2023-04-24T03:44:44;1.60;;;0.90;;
20609;SDS011;10463;52.378;9.688;2023-04-24T03:47:29;1.47;;;0.90;;
20609;SDS011;10463;52.378;9.688;2023-04-24T03:50:17;1.30;;;0.80;;
20609;SDS011;10463;52.378;9.688;2023-04-24T03:53:03;1.40;;;0.70;;
20609;SDS011;10463;52.378;9.688;2023-04-24T03:55:54;1.50;;;1.00;;
20609;SDS011;10463;52.378;9.688;2023-04-24T03:58:39;1.40;;;0.80;;
20609;SDS011;10463;52.378;9.688;2023-04-24T04:01:24;1.30;;;0.70;;
20609;SDS011;10463;52.378;9.688;2023-04-24T04:04:16;1.20;;;0.70;;
20609;SDS011;10463;52.378;9.688;2023-04-24T04:07:02;1.20;;;0.70;;
20609;SDS011;10463;52.378;9.688;2023-04-24T04:09:50;1.50;;;0.60;;
20609;SDS011;10463;52.378;9.688;2023-04-24T04:12:34;1.30;;;0.70;;
20609;SDS011;10463;52.378;9.688;2023-04-24T04:15:19;1.37;;;0.90;;
20609;SDS011;10463;52.378;9.688;2023-04-24T04:18:04;1.60;;;0.87;;
20609;SDS011;10463;52.378;9.688;2023-04-24T04:20:49;1.33;;;0.70;;
20609;SDS011;10463;52.378;9.688;2023-04-24T04:23:35;1.50;;;1.07;;
20609;SDS011;10463;52.378;9.688;2023-04-24T04:26:31;1.27;;;0.70;;
20609;SDS011;10463;52.378;9.688;2023-04-24T04:29:20;1.30;;;0.80;;
20609;SDS011;10463;52.378;9.688;2023-04-24T04:32:08;1.40;;;0.80;;
20609;SDS011;10463;52.378;9.688;2023-04-24T04:34:52;1.20;;;0.70;;
20609;SDS011;10463;52.378;9.688;2023-04-24T04:37:39;1.40;;;0.70;;
20609;SDS011;10463;52.378;9.688;2023-04-24T04:40:46;1.30;;;0.70;;
20609;SDS011;10463;52.378;9.688;2023-04-24T04:43:33;1.30;;;0.73;;
20609;SDS011;10463;52.378;9.688;2023-04-24T04:46:18;1.83;;;0.90;;
20609;SDS011;10463;52.378;9.688;2023-04-24T04:49:38;1.40;;;0.80;;
20609;SDS011;10463;52.378;9.688;2023-04-24T04:52:27;1.57;;;0.90;;
20609;SDS011;10463;52.378;9.688;2023-04-24T04:55:25;1.60;;;1.00;;
20609;SDS011;10463;52.378;9.688;2023-04-24T04:58:26;1.30;;;0.70;;
20609;SDS011;10463;52.378;9.688;2023-04-24T05:01:16;1.33;;;0.80;;
20609;SDS011;10463;52.378;9.688;2023-04-24T05:04:04;1.40;;;0.90;;
20609;SDS011;10463;52.378;9.688;2023-04-24T05:06:49;1.30;;;0.70;;
20609;SDS011;10463;52.378;9.688;2023-04-24T05:09:36;1.40;;;0.80;;
20609;SDS011;10463;52.378;9.688;2023-04-24T05:12:23;1.33;;;0.73;;
20609;SDS011;10463;52.378;9.688;2023-04-24T05:15:11;1.40;;;0.90;;
20609;SDS011;10463;52.378;9.688;2023-04-24T05:17:57;1.30;;;0.70;;
20609;SDS011;10463;52.378;9.688;2023-04-24T05:20:42;1.60;;;0.90;;
20609;SDS011;10463;52.378;9.688;2023-04-24T05:23:28;1.57;;;0.97;;
20609;SDS011;10463;52.378;9.688;2023-04-24T05:26:14;1.63;;;1.00;;
20609;SDS011;10463;52.378;9.688;2023-04-24T05:28:59;1.40;;;0.83;;
20609;SDS011;10463;52.378;9.688;2023-04-24T05:31:44;1.40;;;0.80;;
20609;SDS011;10463;52.378;9.688;2023-04-24T05:34:31;1.40;;;0.73;;
20609;SDS011;10463;52.378;9.688;2023-04-24T05:37:16;1.63;;;0.80;;
20609;SDS011;10463;52.378;9.688;2023-04-24T05:40:00;1.57;;;0.87;;
20609;SDS011;10463;52.378;9.688;2023-04-24T05:42:45;1.30;;;0.80;;
20609;SDS011;10463;52.378;9.688;2023-04-24T05:45:30;1.53;;;0.90;;
20609;SDS011;10463;52.378;9.688;2023-04-24T05:48:15;1.50;;;1.00;;
20609;SDS011;10463;52.378;9.688;2023-04-24T05:51:01;1.67;;;1.00;;
20609;SDS011;10463;52.378;9.688;2023-04-24T05:53:47;1.40;;;0.80;;
20609;SDS011;10463;52.378;9.688;2023-04-24T05:56:31;1.37;;;0.80;;
20609;SDS011;10463;52.378;9.688;2023-04-24T05:59:18;1.70;;;1.20;;
20609;SDS011;10463;52.378;9.688;2023-04-24T06:02:03;1.53;;;1.13;;
20609;SDS011;10463;52.378;9.688;2023-04-24T06:04:49;1.50;;;1.00;;
20609;SDS011;10463;52.378;9.688;2023-04-24T06:07:36;1.90;;;1.30;;
20609;SDS011;10463;52.378;9.688;2023-04-24T06:10:24;2.07;;;1.30;;
20609;SDS011;10463;52.378;9.688;2023-04-24T06:13:09;1.90;;;1.30;;
20609;SDS011;10463;52.378;9.688;2023-04-24T06:15:59;1.70;;;1.10;;
20609;SDS011;10463;52.378;9.688;2023-04-24T06:18:51;2.57;;;1.37;;
20609;SDS011;10463;52.378;9.688;2023-04-24T06:21:37;2.00;;;1.27;;
20609;SDS011;10463;52.378;9.688;2023-04-24T06:24:28;2.37;;;1.80;;
20609;SDS011;10463;52.378;9.688;2023-04-24T06:27:13;2.10;;;1.60;;
20609;SDS011;10463;52.378;9.688;2023-04-24T06:29:58;2.10;;;1.70;;
20609;SDS011;10463;52.378;9.688;2023-04-24T06:32:43;1.83;;;1.23;;
20609;SDS011;10463;52.378;9.688;2023-04-24T06:35:27;2.10;;;1.73;;
20609;SDS011;10463;52.378;9.688;2023-04-24T06:38:12;2.30;;;1.90;;
20609;SDS011;10463;52.378;9.688;2023-04-24T06:40:59;2.83;;;2.30;;
20609;SDS011;10463;52.378;9.688;2023-04-24T06:43:44;3.00;;;2.40;;
20609;SDS011;10463;52.378;9.688;2023-04-24T06:46:29;2.57;;;2.37;;
20609;SDS011;10463;52.378;9.688;2023-04-24T06:49:14;3.17;;;2.60;;
20609;SDS011;10463;52.378;9.688;2023-04-24T06:52:00;2.87;;;2.37;;
20609;SDS011;10463;52.378;9.688;2023-04-24T06:54:44;4.30;;;3.13;;
20609;SDS011;10463;52.378;9.688;2023-04-24T06:57:31;3.77;;;2.90;;
20609;SDS011;10463;52.378;9.688;2023-04-24T07:00:16;4.00;;;3.60;;
20609;SDS011;10463;52.378;9.688;2023-04-24T07:03:01;4.50;;;3.50;;
20609;SDS011;10463;52.378;9.688;2023-04-24T07:05:46;4.23;;;3.80;;
20609;SDS011;10463;52.378;9.688;2023-04-24T07:08:33;4.70;;;4.20;;
20609;SDS011;10463;52.378;9.688;2023-04-24T07:11:17;5.83;;;5.00;;
20609;SDS011;10463;52.378;9.688;2023-04-24T07:14:03;5.87;;;5.10;;
20609;SDS011;10463;52.378;9.688;2023-04-24T07:16:48;7.47;;;6.70;;
20609;SDS011;10463;52.378;9.688;2023-04-24T07:19:33;7.20;;;6.40;;
20609;SDS011;10463;52.378;9.688;2023-04-24T07:22:21;7.43;;;6.40;;
20609;SDS011;10463;52.378;9.688;2023-04-24T07:25:07;9.40;;;7.37;;
20609;SDS011;10463;52.378;9.688;2023-04-24T07:27:53;7.63;;;6.50;;
20609;SDS011;10463;52.378;9.688;2023-04-24T07:30:39;7.73;;;6.93;;
20609;SDS011;10463;52.378;9.688;2023-04-24T07:33:24;9.17;;;7.37;;
20609;SDS011;10463;52.378;9.688;2023-04-24T07:36:09;9.40;;;8.40;;
20609;SDS011;10463;52.378;9.688;2023-04-24T07:38:59;10.17;;;9.10;;
20609;SDS011;10463;52.378;9.688;2023-04-24T07:41:44;10.57;;;9.57;;
20609;SDS011;10463;52.378;9.688;2023-04-24T07:44:28;10.80;;;9.70;;
20609;SDS011;10463;52.378;9.688;2023-04-24T07:47:15;10.93;;;9.83;;
20609;SDS011;10463;52.378;9.688;2023-04-24T07:50:00;10.43;;;9.43;;
20609;SDS011;10463;52.378;9.688;2023-04-24T07:52:45;11.67;;;10.33;;
20609;SDS011;10463;52.378;9.688;2023-04-24T07:55:30;11.53;;;10.23;;
20609;SDS011;10463;52.378;9.688;2023-04-24T07:58:15;12.17;;;10.63;;
20609;SDS011;10463;52.378;9.688;2023-04-24T08:01:00;12.83;;;11.43;;
20609;SDS011;10463;52.378;9.688;2023-04-24T08:03:46;12.27;;;10.97;;
20609;SDS011;10463;52.378;9.688;2023-04-24T08:06:31;12.80;;;11.50;;
20609;SDS011;10463;52.378;9.688;2023-04-24T08:09:16;13.20;;;11.77;;
20609;SDS011;10463;52.378;9.688;2023-04-24T08:12:00;13.53;;;11.60;;
20609;SDS011;10463;52.378;9.688;2023-04-24T08:14:46;13.33;;;12.03;;
20609;SDS011;10463;52.378;9.688;2023-04-24T08:17:30;12.13;;;10.93;;
20609;SDS011;10463;52.378;9.688;2023-04-24T08:20:16;14.97;;;13.57;;
20609;SDS011;10463;52.378;9.688;2023-04-24T08:23:01;14.27;;;12.10;;
20609;SDS011;10463;52.378;9.688;2023-04-24T08:25:46;14.80;;;13.20;;
20609;SDS011;10463;52.378;9.688;2023-04-24T08:28:30;15.60;;;13.77;;
20609;SDS011;10463;52.378;9.688;2023-04-24T08:31:15;14.03;;;12.53;;
20609;SDS011;10463;52.378;9.688;2023-04-24T08:34:00;13.43;;;12.10;;
20609;SDS011;10463;52.378;9.688;2023-04-24T08:36:46;14.17;;;12.67;;
20609;SDS011;10463;52.378;9.688;2023-04-24T08:39:31;14.87;;;13.17;;
20609;SDS011;10463;52.378;9.688;2023-04-24T08:42:17;14.20;;;12.87;;
20609;SDS011;10463;52.378;9.688;2023-04-24T08:45:04;14.23;;;12.87;;
20609;SDS011;10463;52.378;9.688;2023-04-24T08:47:50;14.20;;;12.67;;
20609;SDS011;10463;52.378;9.688;2023-04-24T08:50:37;14.90;;;13.40;;
20609;SDS011;10463;52.378;9.688;2023-04-24T08:53:27;13.70;;;12.37;;
20609;SDS011;10463;52.378;9.688;2023-04-24T08:56:12;14.17;;;12.67;;
20609;SDS011;10463;52.378;9.688;2023-04-24T08:58:57;14.00;;;12.53;;
20609;SDS011;10463;52.378;9.688;2023-04-24T09:01:42;12.47;;;11.20;;
20609;SDS011;10463;52.378;9.688;2023-04-24T09:04:28;13.20;;;11.90;;
20609;SDS011;10463;52.378;9.688;2023-04-24T09:07:15;13.90;;;12.50;;
20609;SDS011;10463;52.378;9.688;2023-04-24T09:10:04;13.47;;;11.73;;
20609;SDS011;10463;52.378;9.688;2023-04-24T09:12:51;12.50;;;11.13;;
20609;SDS011;10463;52.378;9.688;2023-04-24T09:15:36;13.53;;;12.23;;
20609;SDS011;10463;52.378;9.688;2023-04-24T09:18:22;12.50;;;11.33;;
20609;SDS011;10463;52.378;9.688;2023-04-24T09:21:08;12.43;;;11.20;;
20609;SDS011;10463;52.378;9.688;2023-04-24T09:23:59;13.20;;;11.90;;
20609;SDS011;10463;52.378;9.688;2023-04-24T09:26:48;12.70;;;11.43;;
20609;SDS011;10463;52.378;9.688;2023-04-24T09:29:53;12.17;;;10.90;;
20609;SDS011;10463;52.378;9.688;2023-04-24T09:32:38;11.13;;;10.07;;
20609;SDS011;10463;52.378;9.688;2023-04-24T09:35:24;10.67;;;9.50;;
20609;SDS011;10463;52.378;9.688;2023-04-24T09:38:09;11.53;;;10.40;;
20609;SDS011;10463;52.378;9.688;2023-04-24T09:40:54;11.00;;;9.90;;
20609;SDS011;10463;52.378;9.688;2023-04-24T09:43:40;11.43;;;10.23;;
20609;SDS011;10463;52.378;9.688;2023-04-24T09:46:32;11.30;;;10.20;;
20609;SDS011;10463;52.378;9.688;2023-04-24T09:49:22;11.53;;;10.40;;
20609;SDS011;10463;52.378;9.688;2023-04-24T09:52:09;11.30;;;10.17;;
20609;SDS011;10463;52.378;9.688;2023-04-24T09:54:55;10.80;;;9.80;;
20609;SDS011;10463;52.378;9.688;2023-04-24T09:57:47;10.73;;;9.63;;
20609;SDS011;10463;52.378;9.688;2023-04-24T10:00:35;10.60;;;9.27;;
20609;SDS011;10463;52.378;9.688;2023-04-24T10:03:20;10.80;;;9.70;;
20609;SDS011;10463;52.378;9.688;2023-04-24T10:06:05;10.80;;;9.70;;
20609;SDS011;10463;52.378;9.688;2023-04-24T10:08:52;10.30;;;9.40;;
20609;SDS011;10463;52.378;9.688;2023-04-24T10:11:37;10.37;;;9.33;;
20609;SDS011;10463;52.378;9.688;2023-04-24T10:14:26;9.57;;;8.60;;
20609;SDS011;10463;52.378;9.688;2023-04-24T10:17:12;10.07;;;9.10;;
20609;SDS011;10463;52.378;9.688;2023-04-24T10:19:59;10.80;;;9.70;;
20609;SDS011;10463;52.378;9.688;2023-04-24T10:22:46;9.90;;;8.40;;
20609;SDS011;10463;52.378;9.688;2023-04-24T10:25:35;10.40;;;9.40;;
20609;SDS011;10463;52.378;9.688;2023-04-24T10:28:21;10.67;;;9.67;;
20609;SDS011;10463;52.378;9.688;2023-04-24T10:31:08;11.20;;;9.80;;
20609;SDS011;10463;52.378;9.688;2023-04-24T10:33:55;9.53;;;8.60;;
20609;SDS011;10463;52.378;9.688;2023-04-24T10:36:45;9.50;;;8.50;;
20609;SDS011;10463;52.378;9.688;2023-04-24T10:39:33;9.93;;;8.93;;
20609;SDS011;10463;52.378;9.688;2023-04-24T10:42:19;9.53;;;8.53;;
20609;SDS011;10463;52.378;9.688;2023-04-24T10:45:05;10.47;;;9.37;;
20609;SDS011;10463;52.378;9.688;2023-04-24T10:47:58;9.83;;;8.73;;
20609;SDS011;10463;52.378;9.688;2023-04-24T10:50:47;8.50;;;7.60;;
20609;SDS011;10463;52.378;9.688;2023-04-24T10:53:36;9.10;;;8.20;;
20609;SDS011;10463;52.378;9.688;2023-04-24T10:56:21;9.80;;;8.80;;
20609;SDS011;10463;52.378;9.688;2023-04-24T10:59:07;9.30;;;8.30;;
20609;SDS011;10463;52.378;9.688;2023-04-24T11:01:54;9.20;;;8.30;;
20609;SDS011;10463;52.378;9.688;2023-04-24T11:04:39;9.27;;;8.37;;
20609;SDS011;10463;52.378;9.688;2023-04-24T11:07:28;7.97;;;7.20;;
20609;SDS011;10463;52.378;9.688;2023-04-24T11:10:25;9.03;;;8.07;;
20609;SDS011;10463;52.378;9.688;2023-04-24T11:13:10;9.10;;;8.20;;
20609;SDS011;10463;52.378;9.688;2023-04-24T11:16:14;8.50;;;7.60;;
20609;SDS011;10463;52.378;9.688;2023-04-24T11:19:01;8.30;;;7.40;;
20609;SDS011;10463;52.378;9.688;2023-04-24T11:21:49;7.17;;;6.47;;
20609;SDS011;10463;52.378;9.688;2023-04-24T11:24:50;8.83;;;8.03;;
20609;SDS011;10463;52.378;9.688;2023-04-24T11:27:44;8.50;;;7.60;;
20609;SDS011;10463;52.378;9.688;2023-04-24T11:30:31;7.60;;;6.90;;
20609;SDS011;10463;52.378;9.688;2023-04-24T11:33:19;7.73;;;6.97;;
20609;SDS011;10463;52.378;9.688;2023-04-24T11:36:05;7.57;;;6.80;;
20609;SDS011;10463;52.378;9.688;2023-04-24T11:38:51;7.70;;;6.90;;
20609;SDS011;10463;52.378;9.688;2023-04-24T11:41:37;7.20;;;6.50;;
20609;SDS011;10463;52.378;9.688;2023-04-24T11:44:22;7.43;;;6.50;;
20609;SDS011;10463;52.378;9.688;2023-04-24T11:47:09;7.00;;;6.00;;
20609;SDS011;10463;52.378;9.688;2023-04-24T11:49:53;6.93;;;6.20;;
20609;SDS011;10463;52.378;9.688;2023-04-24T11:52:40;7.40;;;6.70;;
20609;SDS011;10463;52.378;9.688;2023-04-24T11:55:27;6.57;;;5.90;;
20609;SDS011;10463;52.378;9.688;2023-04-24T11:58:14;6.30;;;5.70;;
20609;SDS011;10463;52.378;9.688;2023-04-24T12:00:59;7.50;;;6.80;;
20609;SDS011;10463;52.378;9.688;2023-04-24T12:03:47;7.13;;;6.43;;
20609;SDS011;10463;52.378;9.688;2023-04-24T12:06:33;6.20;;;5.60;;
20609;SDS011;10463;52.378;9.688;2023-04-24T12:09:18;5.37;;;4.87;;
20609;SDS011;10463;52.378;9.688;2023-04-24T12:12:02;5.93;;;5.30;;
20609;SDS011;10463;52.378;9.688;2023-04-24T12:14:54;6.27;;;5.00;;
20609;SDS011;10463;52.378;9.688;2023-04-24T12:17:41;5.00;;;4.53;;
20609;SDS011;10463;52.378;9.688;2023-04-24T12:20:28;4.90;;;4.23;;
20609;SDS011;10463;52.378;9.688;2023-04-24T12:23:14;4.93;;;4.43;;
20609;SDS011;10463;52.378;9.688;2023-04-24T12:25:59;5.13;;;4.63;;
20609;SDS011;10463;52.378;9.688;2023-04-24T12:28:46;5.17;;;4.67;;
20609;SDS011;10463;52.378;9.688;2023-04-24T12:31:34;4.90;;;4.40;;
20609;SDS011;10463;52.378;9.688;2023-04-24T12:34:19;4.80;;;4.30;;
20609;SDS011;10463;52.378;9.688;2023-04-24T12:37:10;4.77;;;4.27;;
20609;SDS011;10463;52.378;9.688;2023-04-24T12:40:02;4.40;;;4.00;;
20609;SDS011;10463;52.378;9.688;2023-04-24T12:42:50;4.53;;;3.97;;
20609;SDS011;10463;52.378;9.688;2023-04-24T12:45:35;4.13;;;3.73;;
20609;SDS011;10463;52.378;9.688;2023-04-24T12:48:21;4.57;;;4.17;;
20609;SDS011;10463;52.378;9.688;2023-04-24T12:51:07;4.80;;;4.30;;
20609;SDS011;10463;52.378;9.688;2023-04-24T12:53:51;4.07;;;3.67;;
20609;SDS011;10463;52.378;9.688;2023-04-24T12:56:36;4.63;;;4.13;;
20609;SDS011;10463;52.378;9.688;2023-04-24T12:59:23;4.30;;;3.90;;
20609;SDS011;10463;52.378;9.688;2023-04-24T13:02:08;4.70;;;4.03;;
20609;SDS011;10463;52.378;9.688;2023-04-24T13:04:55;4.50;;;3.97;;
20609;SDS011;10463;52.378;9.688;2023-04-24T13:07:40;4.93;;;3.97;;
20609;SDS011;10463;52.378;9.688;2023-04-24T13:10:24;4.73;;;3.90;;
20609;SDS011;10463;52.378;9.688;2023-04-24T13:13:09;3.67;;;3.30;;
20609;SDS011;10463;52.378;9.688;2023-04-24T13:15:54;4.40;;;3.90;;
20609;SDS011;10463;52.378;9.688;2023-04-24T13:18:38;4.43;;;4.00;;
20609;SDS011;10463;52.378;9.688;2023-04-24T13:21:25;4.83;;;4.33;;
20609;SDS011;10463;52.378;9.688;2023-04-24T13:24:10;4.13;;;3.73;;
20609;SDS011;10463;52.378;9.688;2023-04-24T13:26:55;4.30;;;3.90;;
20609;SDS011;10463;52.378;9.688;2023-04-24T13:29:40;4.10;;;3.70;;
20609;SDS011;10463;52.378;9.688;2023-04-24T13:32:25;4.20;;;3.80;;
20609;SDS011;10463;52.378;9.688;2023-04-24T13:35:11;3.60;;;3.27;;
20609;SDS011;10463;52.378;9.688;2023-04-24T13:37:57;4.87;;;4.10;;
20609;SDS011;10463;52.378;9.688;2023-04-24T13:40:42;4.97;;;3.87;;
20609;SDS011;10463;52.378;9.688;2023-04-24T13:43:26;4.40;;;4.00;;
20609;SDS011;10463;52.378;9.688;2023-04-24T13:46:11;4.57;;;3.70;;
20609;SDS011;10463;52.378;9.688;2023-04-24T13:48:56;4.30;;;3.87;;
20609;SDS011;10463;52.378;9.688;2023-04-24T13:51:41;4.90;;;4.00;;
20609;SDS011;10463;52.378;9.688;2023-04-24T13:54:28;4.00;;;3.60;;
20609;SDS011;10463;52.378;9.688;2023-04-24T13:57:13;3.83;;;3.47;;
20609;SDS011;10463;52.378;9.688;2023-04-24T13:59:59;4.37;;;3.20;;
20609;SDS011;10463;52.378;9.688;2023-04-24T14:02:51;3.90;;;3.40;;
20609;SDS011;10463;52.378;9.688;2023-04-24T14:05:36;3.77;;;3.33;;
20609;SDS011;10463;52.378;9.688;2023-04-24T14:08:20;4.47;;;3.70;;
20609;SDS011;10463;52.378;9.688;2023-04-24T14:11:06;4.20;;;3.80;;
20609;SDS011;10463;52.378;9.688;2023-04-24T14:13:51;3.70;;;3.20;;
20609;SDS011;10463;52.378;9.688;2023-04-24T14:16:36;4.00;;;3.60;;
20609;SDS011;10463;52.378;9.688;2023-04-24T14:19:21;3.50;;;3.20;;
20609;SDS011;10463;52.378;9.688;2023-04-24T14:22:05;4.00;;;3.40;;
20609;SDS011;10463;52.378;9.688;2023-04-24T14:24:51;4.33;;;3.37;;
20609;SDS011;10463;52.378;9.688;2023-04-24T14:27:37;4.67;;;3.53;;
20609;SDS011;10463;52.378;9.688;2023-04-24T14:30:22;4.67;;;3.87;;
20609;SDS011;10463;52.378;9.688;2023-04-24T14:33:07;4.27;;;3.73;;
20609;SDS011;10463;52.378;9.688;2023-04-24T14:35:51;4.53;;;3.80;;
20609;SDS011;10463;52.378;9.688;2023-04-24T14:38:36;3.80;;;3.20;;
20609;SDS011;10463;52.378;9.688;2023-04-24T14:41:21;4.60;;;4.00;;
20609;SDS011;10463;52.378;9.688;2023-04-24T14:44:07;4.10;;;3.70;;
20609;SDS011;10463;52.378;9.688;2023-04-24T14:46:51;4.40;;;4.00;;
20609;SDS011;10463;52.378;9.688;2023-04-24T14:49:37;4.20;;;3.63;;
20609;SDS011;10463;52.378;9.688;2023-04-24T14:52:22;4.50;;;3.10;;
20609;SDS011;10463;52.378;9.688;2023-04-24T14:55:08;4.43;;;4.03;;
20609;SDS011;10463;52.378;9.688;2023-04-24T14:57:53;5.30;;;4.20;;
20609;SDS011;10463;52.378;9.688;2023-04-24T15:00:39;4.20;;;3.80;;
20609;SDS011;10463;52.378;9.688;2023-04-24T15:03:24;4.40;;;3.67;;
20609;SDS011;10463;52.378;9.688;2023-04-24T15:06:10;5.83;;;4.70;;
20609;SDS011;10463;52.378;9.688;2023-04-24T15:08:55;4.47;;;3.93;;
20609;SDS011;10463;52.378;9.688;2023-04-24T15:11:40;5.50;;;4.47;;
20609;SDS011;10463;52.378;9.688;2023-04-24T15:14:24;5.27;;;4.23;;
20609;SDS011;10463;52.378;9.688;2023-04-24T15:17:11;7.17;;;4.77;;
20609;SDS011;10463;52.378;9.688;2023-04-24T15:19:55;5.60;;;4.80;;
20609;SDS011;10463;52.378;9.688;2023-04-24T15:22:40;5.17;;;4.40;;
20609;SDS011;10463;52.378;9.688;2023-04-24T15:25:25;5.60;;;4.77;;
20609;SDS011;10463;52.378;9.688;2023-04-24T15:28:10;4.70;;;4.20;;
20609;SDS011;10463;52.378;9.688;2023-04-24T15:30:55;5.93;;;5.30;;
20609;SDS011;10463;52.378;9.688;2023-04-24T15:33:41;5.23;;;4.33;;
20609;SDS011;10463;52.378;9.688;2023-04-24T15:36:26;6.00;;;5.20;;
20609;SDS011;10463;52.378;9.688;2023-04-24T15:39:11;6.13;;;5.50;;
20609;SDS011;10463;52.378;9.688;2023-04-24T15:41:57;5.73;;;5.23;;
20609;SDS011;10463;52.378;9.688;2023-04-24T15:44:43;6.23;;;5.63;;
20609;SDS011;10463;52.378;9.688;2023-04-24T15:47:29;5.83;;;5.33;;
20609;SDS011;10463;52.378;9.688;2023-04-24T15:50:15;5.60;;;5.10;;
20609;SDS011;10463;52.378;9.688;2023-04-24T15:53:00;8.27;;;6.90;;
20609;SDS011;10463;52.378;9.688;2023-04-24T15:55:45;7.50;;;6.40;;
20609;SDS011;10463;52.378;9.688;2023-04-24T15:58:29;6.53;;;5.83;;
20609;SDS011;10463;52.378;9.688;2023-04-24T16:01:14;7.77;;;6.90;;
20609;SDS011;10463;52.378;9.688;2023-04-24T16:03:59;6.50;;;5.60;;
20609;SDS011;10463;52.378;9.688;2023-04-24T16:06:46;8.07;;;6.87;;
20609;SDS011;10463;52.378;9.688;2023-04-24T16:09:31;8.30;;;7.37;;
20609;SDS011;10463;52.378;9.688;2023-04-24T16:12:15;6.87;;;5.70;;
20609;SDS011;10463;52.378;9.688;2023-04-24T16:15:00;7.90;;;7.00;;
20609;SDS011;10463;52.378;9.688;2023-04-24T16:17:47;8.50;;;7.07;;
20609;SDS011;10463;52.378;9.688;2023-04-24T16:20:32;7.20;;;6.50;;
20609;SDS011;10463;52.378;9.688;2023-04-24T16:23:18;9.50;;;7.00;;
20609;SDS011;10463;52.378;9.688;2023-04-24T16:26:04;7.40;;;6.70;;
20609;SDS011;10463;52.378;9.688;2023-04-24T16:28:49;7.90;;;7.10;;
20609;SDS011;10463;52.378;9.688;2023-04-24T16:31:34;7.77;;;6.70;;
20609;SDS011;10463;52.378;9.688;2023-04-24T16:34:18;9.13;;;7.03;;
20609;SDS011;10463;52.378;9.688;2023-04-24T16:37:03;7.70;;;6.90;;